createdAt,value
2023-01-02T00:01:40.177Z,101280.25
2023-01-02T00:06:48.059Z,101271.59
2023-01-02T00:11:54.364Z,101281.97
2023-01-02T00:17:00.648Z,101283.75
2023-01-02T00:22:08.298Z,101284.66
2023-01-02T00:27:14.741Z,101290.69
2023-01-02T00:32:21.079Z,101284.69
2023-01-02T00:37:28.984Z,101293.34
2023-01-02T00:42:35.586Z,101291.59
2023-01-02T00:47:42.095Z,101299.34
2023-01-02T00:52:49.997Z,101301.97
2023-01-02T00:57:56.271Z,101293.28
2023-01-02T01:03:02.841Z,101291.56
2023-01-02T01:08:10.785Z,101304.63
2023-01-02T01:13:18.157Z,101306.34
2023-01-02T01:18:24.467Z,101289.84
2023-01-02T01:23:32.103Z,101284.69
2023-01-02T01:28:38.625Z,101273.34
2023-01-02T01:33:45.882Z,101269.94
2023-01-02T01:38:53.986Z,101265.75
2023-01-02T01:44:01.907Z,101260.47
2023-01-02T01:49:14.426Z,101269.13
2023-01-02T01:54:27.341Z,101257.03
2023-01-02T01:59:35.802Z,101254.44
2023-01-02T02:04:44.250Z,101262.22
2023-01-02T02:09:58.482Z,101256.09
2023-01-02T02:15:06.234Z,101247.44
2023-01-02T02:20:33.140Z,101245.66
2023-01-02T02:26:13.288Z,101252.63
2023-01-02T02:31:32.123Z,101259.56
2023-01-02T02:36:45.272Z,101259.66
2023-01-02T02:42:04.237Z,101248.41
2023-01-02T02:47:24.003Z,101244.94
2023-01-02T02:52:35.027Z,101244.19
2023-01-02T02:57:45.351Z,101250.22
2023-01-02T03:02:53.508Z,101257.22
2023-01-02T03:08:07.947Z,101264.97
2023-01-02T03:13:21.938Z,101265.88
2023-01-02T03:18:37.431Z,101259.91
2023-01-02T03:23:46.974Z,101262.53
2023-01-02T03:28:59.657Z,101271.13
2023-01-02T03:34:15.958Z,101269.44
2023-01-02T03:39:26.788Z,101271.13
2023-01-02T03:44:41.646Z,101265.97
2023-01-02T03:49:55.293Z,101269.47
2023-01-02T03:55:02.905Z,101267.72
2023-01-02T04:00:13.920Z,101279.88
2023-01-02T04:05:27.808Z,101281.63
2023-01-02T04:10:39.172Z,101263.53
2023-01-02T04:15:49.260Z,101261.94
2023-01-02T04:21:03.542Z,101248.09
2023-01-02T04:26:15.165Z,101245.53
2023-01-02T04:31:29.311Z,101249.06
2023-01-02T04:36:41.642Z,101237.72
2023-01-02T04:41:48.176Z,101230.91
2023-01-02T04:46:54.739Z,101218.75
2023-01-02T04:52:02.682Z,101221.31
2023-01-02T04:57:09.509Z,101210.06
2023-01-02T05:02:16.199Z,101197.19
2023-01-02T05:07:24.494Z,101198.91
2023-01-02T05:12:30.774Z,101187.56
2023-01-02T05:17:37.971Z,101182.34
2023-01-02T05:23:03.460Z,101175.38
2023-01-02T05:28:09.804Z,101165.84
2023-01-02T05:33:16.694Z,101171.03
2023-01-02T05:38:24.547Z,101172.81
2023-01-02T05:43:33.622Z,101177.19
2023-01-02T05:48:40.356Z,101173.81
2023-01-02T05:53:49.548Z,101173.88
2023-01-02T05:58:56.287Z,101157.41
2023-01-02T06:04:03.262Z,101148.78
2023-01-02T06:09:14.954Z,101154.78
2023-01-02T06:14:22.659Z,101154.78
2023-01-02T06:19:29.768Z,101157.44
2023-01-02T06:24:37.737Z,101156.59
2023-01-02T06:29:44.180Z,101153.97
2023-01-02T06:34:53.846Z,101156.59
2023-01-02T06:40:01.810Z,101150.53
2023-01-02T06:45:10.156Z,101145.34
2023-01-02T06:50:16.400Z,101138.41
2023-01-02T06:55:24.481Z,101116.78
2023-01-02T07:00:31.106Z,101116.88
2023-01-02T07:05:37.689Z,101119.44
2023-01-02T07:10:52.544Z,101102.19
2023-01-02T07:16:03.107Z,101095.16
2023-01-02T07:21:11.708Z,101088.16
2023-01-02T07:26:19.542Z,101087.28
2023-01-02T07:31:26.871Z,101100.28
2023-01-02T07:36:33.129Z,101090.75
2023-01-02T07:41:40.872Z,101105.50
2023-01-02T07:46:53.500Z,101107.25
2023-01-02T07:51:59.929Z,101115.06
2023-01-02T07:57:07.943Z,101111.56
2023-01-02T08:02:14.647Z,101100.28
2023-01-02T08:07:22.366Z,101107.19
2023-01-02T08:12:30.387Z,101101.97
2023-01-02T08:17:36.868Z,101086.31
2023-01-02T08:22:43.186Z,101103.66
2023-01-02T08:27:53.229Z,101102.78
2023-01-02T08:32:59.515Z,101094.13
2023-01-02T08:38:05.849Z,101088.03
2023-01-02T08:43:16.187Z,101092.34
2023-01-02T08:48:23.105Z,101091.44
2023-01-02T08:53:30.592Z,101079.28
2023-01-02T08:58:38.438Z,101091.38
2023-01-02T09:03:44.947Z,101082.72
2023-01-02T09:08:53.182Z,101084.41
2023-01-02T09:14:02.240Z,101076.53
2023-01-02T09:19:08.406Z,101084.31
2023-01-02T09:24:15.292Z,101081.72
2023-01-02T09:29:23.138Z,101071.25
2023-01-02T09:34:29.722Z,101072.91
2023-01-02T09:39:35.993Z,101076.22
2023-01-02T09:44:48.804Z,101057.91
2023-01-02T09:49:58.399Z,101058.63
2023-01-02T09:55:15.257Z,101036.00
2023-01-02T10:00:26.614Z,101014.16
2023-01-02T10:06:02.807Z,101015.81
2023-01-02T10:11:32.484Z,101018.34
2023-01-02T10:16:44.583Z,101010.47
2023-01-02T10:21:54.698Z,101001.69
2023-01-02T10:27:03.497Z,101007.78
2023-01-02T10:32:18.084Z,101004.19
2023-01-02T10:37:28.440Z,100996.31
2023-01-02T10:42:36.138Z,100997.94
2023-01-02T10:47:45.009Z,100984.78
2023-01-02T10:52:53.829Z,100986.41
2023-01-02T10:58:06.037Z,100987.22
2023-01-02T11:03:22.699Z,100986.31
2023-01-02T11:08:39.641Z,100982.78
2023-01-02T11:13:54.505Z,100976.63
2023-01-02T11:19:04.556Z,100982.63
2023-01-02T11:24:17.320Z,100966.00
2023-01-02T11:29:33.384Z,100962.44
2023-01-02T11:34:55.223Z,100952.81
2023-01-02T11:40:04.526Z,100945.78
2023-01-02T11:45:15.530Z,100945.78
2023-01-02T11:50:28.554Z,100942.16
2023-01-02T11:55:44.072Z,100944.69
2023-01-02T12:00:56.314Z,100935.91
2023-01-02T12:06:18.665Z,100932.41
2023-01-02T12:11:41.206Z,100924.53
2023-01-02T12:16:57.604Z,100928.88
2023-01-02T12:22:30.644Z,100925.41
2023-01-02T12:27:48.220Z,100912.28
2023-01-02T12:33:31.615Z,100909.59
2023-01-02T12:39:09.144Z,100896.50
2023-01-02T12:44:33.865Z,100887.69
2023-01-02T12:50:04.182Z,100882.41
2023-01-02T12:55:39.040Z,100887.56
2023-01-02T13:01:01.878Z,100893.66
2023-01-02T13:06:45.404Z,100874.59
2023-01-02T13:11:50.084Z,100867.59
2023-01-02T13:17:08.449Z,100860.66
2023-01-02T13:22:29.478Z,100867.59
2023-01-02T13:27:37.281Z,100874.56
2023-01-02T13:32:43.636Z,100868.50
2023-01-02T13:37:50.198Z,100892.81
2023-01-02T13:43:03.907Z,100884.13
2023-01-02T13:48:32.067Z,100873.66
2023-01-02T13:53:41.929Z,100871.91
2023-01-02T13:58:53.155Z,100868.50
2023-01-02T14:04:35.787Z,100881.59
2023-01-02T14:10:09.526Z,100871.16
2023-01-02T14:15:25.000Z,100854.66
2023-01-02T14:20:35.172Z,100855.56
2023-01-02T14:25:50.402Z,100864.38
2023-01-02T14:31:01.104Z,100851.38
2023-01-02T14:36:12.348Z,100847.91
2023-01-02T14:42:29.389Z,100849.72
2023-01-02T14:47:41.233Z,100850.72
2023-01-02T14:52:54.559Z,100858.56
2023-01-02T14:58:02.637Z,100863.84
2023-01-02T15:03:23.467Z,100863.94
2023-01-02T15:08:39.637Z,100866.66
2023-01-02T15:14:04.128Z,100861.50
2023-01-02T15:19:23.752Z,100848.53
2023-01-02T15:24:31.905Z,100860.72
2023-01-02T15:29:47.431Z,100866.00
2023-01-02T15:35:13.407Z,100871.25
2023-01-02T15:40:32.180Z,100874.75
2023-01-02T15:45:39.771Z,100874.84
2023-01-02T15:50:50.546Z,100873.03
2023-01-02T15:55:58.443Z,100876.50
2023-01-02T16:01:18.658Z,100869.53
2023-01-02T16:06:34.520Z,100863.38
2023-01-02T16:11:48.854Z,100853.75
2023-01-02T16:17:04.552Z,100840.69
2023-01-02T16:22:22.438Z,100848.53
2023-01-02T16:27:34.135Z,100855.47
2023-01-02T16:32:50.246Z,100863.22
2023-01-02T16:38:00.180Z,100846.63
2023-01-02T16:43:08.268Z,100833.44
2023-01-02T16:48:20.690Z,100832.47
2023-01-02T16:53:32.651Z,100821.13
2023-01-02T16:58:39.033Z,100846.31
2023-01-02T17:03:46.190Z,100845.47
2023-01-02T17:08:54.526Z,100834.09
2023-01-02T17:14:02.037Z,100846.38
2023-01-02T17:19:08.607Z,100851.72
2023-01-02T17:24:17.458Z,100844.91
2023-01-02T17:29:24.313Z,100848.44
2023-01-02T17:34:30.983Z,100845.03
2023-01-02T17:39:39.027Z,100842.50
2023-01-02T17:44:45.828Z,100847.84
2023-01-02T17:49:52.368Z,100854.03
2023-01-02T17:55:00.877Z,100865.47
2023-01-02T18:00:10.850Z,100871.69
2023-01-02T18:05:20.324Z,100857.03
2023-01-02T18:10:32.942Z,100853.66
2023-01-02T18:15:41.746Z,100844.25
2023-01-02T18:20:49.004Z,100847.00
2023-01-02T18:25:56.991Z,100855.75
2023-01-02T18:31:03.742Z,100838.56
2023-01-02T18:36:21.673Z,100831.66
2023-01-02T18:41:32.266Z,100817.81
2023-01-02T18:47:03.157Z,100834.34
2023-01-02T18:52:25.490Z,100825.75
2023-01-02T18:57:37.840Z,100816.22
2023-01-02T19:02:57.563Z,100837.03
2023-01-02T19:08:22.509Z,100837.00
2023-01-02T19:13:35.864Z,100854.38
2023-01-02T19:18:46.066Z,100845.75
2023-01-02T19:23:59.624Z,100856.13
2023-01-02T19:29:21.407Z,100863.94
2023-01-02T19:34:44.738Z,100871.75
2023-01-02T19:39:59.683Z,100862.16
2023-01-02T19:45:13.137Z,100845.63
2023-01-02T19:50:24.835Z,100854.28
2023-01-02T19:55:32.726Z,100859.50
2023-01-02T20:00:47.959Z,100854.28
2023-01-02T20:05:56.730Z,100875.13
2023-01-02T20:11:05.234Z,100889.09
2023-01-02T20:16:16.637Z,100871.81
2023-01-02T20:21:23.764Z,100875.31
2023-01-02T20:26:31.385Z,100879.66
2023-01-02T20:31:42.186Z,100884.91
2023-01-02T20:36:51.657Z,100878.09
2023-01-02T20:41:59.772Z,100875.56
2023-01-02T20:47:09.444Z,100887.78
2023-01-02T20:52:20.412Z,100893.06
2023-01-02T20:57:28.049Z,100896.69
2023-01-02T21:02:40.277Z,100895.81
2023-01-02T21:07:48.656Z,100901.06
2023-01-02T21:13:11.338Z,100904.53
2023-01-02T21:18:22.575Z,100906.25
2023-01-02T21:23:31.929Z,100891.50
2023-01-02T21:28:40.994Z,100892.41
2023-01-02T21:33:49.400Z,100893.22
2023-01-02T21:38:55.905Z,100894.09
2023-01-02T21:44:02.487Z,100895.84
2023-01-02T21:49:10.349Z,100894.97
2023-01-02T21:54:17.046Z,100904.50
2023-01-02T21:59:25.745Z,100890.56
2023-01-02T22:04:34.024Z,100913.16
2023-01-02T22:09:41.806Z,100907.94
2023-01-02T22:14:48.488Z,100922.69
2023-01-02T22:19:56.755Z,100898.38
2023-01-02T22:25:03.668Z,100900.13
2023-01-02T22:30:23.308Z,100915.72
2023-01-02T22:35:33.087Z,100928.72
2023-01-02T22:40:39.681Z,100921.78
2023-01-02T22:45:53.022Z,100920.03
2023-01-02T22:51:02.965Z,100919.16
2023-01-02T22:56:16.023Z,100927.81
2023-01-02T23:01:31.364Z,100933.88
2023-01-02T23:06:57.910Z,100943.41
2023-01-02T23:12:06.714Z,100940.75
2023-01-02T23:17:31.315Z,100939.88
2023-01-02T23:22:39.102Z,100939.78
2023-01-02T23:27:45.456Z,100949.28
2023-01-02T23:32:51.825Z,100958.81
2023-01-02T23:37:59.653Z,100969.22
2023-01-02T23:43:06.016Z,100970.00
2023-01-02T23:48:12.293Z,100968.25
2023-01-02T23:53:20.355Z,100966.50
2023-01-02T23:58:27.395Z,100973.44
